« 定点 富山空港 2019/8/17 sat | トップページ | 定点 富山空港 2019/8/21 wed »

2019/08/19

定点 富山空港 2019/8/19 mon

RJNT 190000Z VRB02KT 9000 FEW030 SCT210 31/24 Q1009

お盆を廻ったら、誰もいない海。

20190819_rjnt_00ja83an

20190819_rjnt_01ja83an

ANA313 RJTT-RJNT JA83AN B737-881

20190819_rjnt_02ja83an

ANA316 RJNT-RJTT JA83AN B737-881

20190819_rjnt_03ja139t

今日の「つるぎ」さんは、演舞場へ

20190819_rjnt_04ja139t

舞踏会の練習です。

20190819_rjnt_05ja139t

規定点10

20190819_rjnt_06ja139t

JA139T AW139 富山県警察

RJNT 190000Z VRB02KT 9000 FEW030 SCT210 31/24 Q1009

20190819_rjnt_07ja139t

可憐な風を浴びてきました。

20190819_rjnt_08ja6512

JA6512 AS350B3 AKF

20190819_rjnt_09ja114a

20190819_rjnt_10ja114a

ANA315 RJTT-RJNT JA114A A321-211

20190819_rjnt_11ja114a

エンドまで転がって・・

20190819_rjnt_12b6652

CSN613 ZYTL-RJNT B-6652 A320-232

20190819_rjnt_13b6652

T1でピッタリと止まるがね

20190819_rjnt_14ja9876

JA9876 AS350B NNK

190200Z VRB05KT 8000 FEW030 BKN200 31/25 Q1009

20190819_rjnt_15b18661

ダイナさんは安全にサークリング

20190819_rjnt_16b18661

20190819_rjnt_17b18661

CAL170 RCTP-RJNT B-18661 B737-8AL

20190819_rjnt_18b18661

あんた誰ぇ? 

20190819_rjnt_19b6652

20190819_rjnt_20b6652

CSN614 RJNT-ZYTL B-6652 A320-232

20190819_rjnt_21semi

命は短いねぇ

20190819_rjnt_22ja114a

20190819_rjnt_23ja114a

ANA1181 RJNT-RJCC JA114A A321-211

20190819_rjnt_24ja114a

当面321が続くのかな

20190819_rjnt_25ja9690

山の主

20190819_rjnt_26ja9690

JA9690 AS332L AKF

190200Z VRB05KT 8000 FEW030 BKN200 31/25 Q1009

20190819_rjnt_27ja6512

JA6512

20190819_rjnt_28ja6512

「つるぎ」さん出動

20190819_rjnt_29ja6512

20190819_rjnt_30ja139t

JA139T

20190819_rjnt_31ja139t

今日は防災さん、フライト無し

20190819_rjnt_32b18661

20190819_rjnt_33b18661

CAL171 RJNT-RCTP B-18661 B737-8AL

20190819_rjnt_34b18661

降りそうで降らない空模様

|

« 定点 富山空港 2019/8/17 sat | トップページ | 定点 富山空港 2019/8/21 wed »

富山空港」カテゴリの記事

コメント

コメントを書く



(ウェブ上には掲載しません)


コメントは記事投稿者が公開するまで表示されません。



« 定点 富山空港 2019/8/17 sat | トップページ | 定点 富山空港 2019/8/21 wed »